createdAt,value
2023-02-18T00:03:17.232Z,9.10
2023-02-18T00:08:19.646Z,8.15
2023-02-18T00:13:21.192Z,8.02
2023-02-18T00:18:22.683Z,8.95
2023-02-18T00:23:24.681Z,8.63
2023-02-18T00:28:26.261Z,7.97
2023-02-18T00:33:27.787Z,8.90
2023-02-18T00:38:29.589Z,10.20
2023-02-18T00:43:31.310Z,9.43
2023-02-18T00:48:32.976Z,9.57
2023-02-18T00:53:35.190Z,9.35
2023-02-18T00:58:37.462Z,7.13
2023-02-18T01:03:41.164Z,8.25
2023-02-18T01:08:43.100Z,8.60
2023-02-18T01:13:44.773Z,9.93
2023-02-18T01:18:46.450Z,8.43
2023-02-18T01:23:48.225Z,11.85
2023-02-18T01:28:50.798Z,9.15
2023-02-18T01:33:52.386Z,8.52
2023-02-18T01:38:55.238Z,9.82
2023-02-18T01:44:18.629Z,9.52
2023-02-18T01:49:39.190Z,6.75
2023-02-18T01:54:45.314Z,7.97
2023-02-18T01:59:52.110Z,12.07
2023-02-18T02:04:55.351Z,7.68
2023-02-18T02:09:59.014Z,7.43
2023-02-18T02:15:09.146Z,7.50
2023-02-18T02:20:38.962Z,8.13
2023-02-18T02:25:58.817Z,6.60
2023-02-18T02:31:35.700Z,6.68
2023-02-18T02:36:49.237Z,7.60
2023-02-18T02:42:29.847Z,6.63
2023-02-18T02:47:58.481Z,4.63
2023-02-18T02:53:06.596Z,4.88
2023-02-18T02:58:15.692Z,6.18
2023-02-18T03:03:40.069Z,3.80
2023-02-18T03:08:55.972Z,5.25
2023-02-18T03:14:07.324Z,3.97
2023-02-18T03:19:36.608Z,4.23
2023-02-18T03:24:41.739Z,2.63
2023-02-18T03:29:46.409Z,1.85
2023-02-18T03:34:53.200Z,3.30
2023-02-18T03:39:58.858Z,1.88
2023-02-18T03:45:01.607Z,2.35
2023-02-18T03:50:03.530Z,1.63
2023-02-18T03:55:06.771Z,2.58
2023-02-18T04:00:09.363Z,1.55
2023-02-18T04:05:17.039Z,1.92
2023-02-18T04:10:18.826Z,3.33
2023-02-18T04:15:20.464Z,0.98
2023-02-18T04:20:22.065Z,0.82
2023-02-18T04:25:23.741Z,0.70
2023-02-18T04:30:25.947Z,1.27
2023-02-18T04:35:27.546Z,1.65
2023-02-18T04:40:29.659Z,0.20
2023-02-18T04:45:31.197Z,0.17
2023-02-18T04:50:32.948Z,0.80
2023-02-18T04:55:34.489Z,1.00
2023-02-18T05:00:36.167Z,0.10
2023-02-18T05:05:37.803Z,0.45
2023-02-18T05:10:39.490Z,0.30
2023-02-18T05:15:41.234Z,1.27
2023-02-18T05:20:43.990Z,0.10
2023-02-18T05:25:45.744Z,0.13
2023-02-18T05:30:47.312Z,0.17
2023-02-18T05:35:49.702Z,1.08
2023-02-18T05:40:51.242Z,0.57
2023-02-18T05:45:52.788Z,0.73
2023-02-18T05:50:54.536Z,0.57
2023-02-18T05:55:56.084Z,0.47
2023-02-18T06:00:57.700Z,0.22
2023-02-18T06:05:59.264Z,0.70
2023-02-18T06:11:00.900Z,0.38
2023-02-18T06:16:02.566Z,3.03
2023-02-18T06:21:04.211Z,0.85
2023-02-18T06:26:05.973Z,1.15
2023-02-18T06:31:07.844Z,1.25
2023-02-18T06:36:12.096Z,0.50
2023-02-18T06:41:14.973Z,0.93
2023-02-18T06:46:16.684Z,0.52
2023-02-18T06:51:18.312Z,0.35
2023-02-18T06:56:19.905Z,0.82
2023-02-18T07:01:21.437Z,0.20
2023-02-18T07:06:22.997Z,0.22
2023-02-18T07:11:24.726Z,0.55
2023-02-18T07:16:26.285Z,3.25
2023-02-18T07:21:30.205Z,0.25
2023-02-18T07:26:32.160Z,0.40
2023-02-18T07:31:33.855Z,0.45
2023-02-18T07:36:35.499Z,0.32
2023-02-18T07:41:37.100Z,1.73
2023-02-18T07:46:41.067Z,0.70
2023-02-18T07:51:42.596Z,1.20
2023-02-18T07:56:44.672Z,1.08
2023-02-18T08:01:46.679Z,0.30
2023-02-18T08:06:49.589Z,0.30
2023-02-18T08:11:51.294Z,2.25
2023-02-18T08:16:52.863Z,1.00
2023-02-18T08:21:54.473Z,1.95
2023-02-18T08:27:00.877Z,1.20
2023-02-18T08:32:03.255Z,2.58
2023-02-18T08:37:05.374Z,6.40
2023-02-18T08:42:07.037Z,4.00
2023-02-18T08:48:16.152Z,4.57
2023-02-18T08:52:30.252Z,4.63
2023-02-18T08:57:31.948Z,7.90
2023-02-18T09:02:35.507Z,5.72
2023-02-18T09:07:37.516Z,7.10
2023-02-18T09:12:39.147Z,4.20
2023-02-18T09:17:40.846Z,4.97
2023-02-18T09:22:42.626Z,6.07
2023-02-18T09:27:44.212Z,4.50
2023-02-18T09:32:46.023Z,7.00
2023-02-18T09:37:47.972Z,5.28
2023-02-18T09:42:50.036Z,6.20
2023-02-18T09:47:53.244Z,4.75
2023-02-18T09:52:55.877Z,4.07
2023-02-18T09:58:02.726Z,4.25
2023-02-18T10:03:11.371Z,3.47
2023-02-18T10:08:36.612Z,4.32
2023-02-18T10:13:41.335Z,3.75
2023-02-18T10:18:47.413Z,3.08
2023-02-18T10:23:56.018Z,5.72
2023-02-18T10:28:58.577Z,7.38
2023-02-18T10:34:38.779Z,3.92
2023-02-18T10:39:50.670Z,3.92
2023-02-18T10:45:18.169Z,3.85
2023-02-18T10:50:34.195Z,3.17
2023-02-18T10:55:41.939Z,3.30
2023-02-18T11:00:44.692Z,3.85
2023-02-18T11:05:48.479Z,4.88
2023-02-18T11:10:50.912Z,6.40
2023-02-18T11:16:02.016Z,2.42
2023-02-18T11:21:07.873Z,3.92
2023-02-18T11:26:15.285Z,4.50
2023-02-18T11:31:23.402Z,4.15
2023-02-18T11:36:29.861Z,3.92
2023-02-18T11:41:42.201Z,4.57
2023-02-18T11:46:57.146Z,5.97
2023-02-18T11:52:14.614Z,3.80
2023-02-18T11:57:18.138Z,4.18
2023-02-18T12:02:37.888Z,2.20
2023-02-18T12:07:47.586Z,4.47
2023-02-18T12:13:00.458Z,2.53
2023-02-18T12:18:32.545Z,2.08
2023-02-18T12:23:46.239Z,3.08
2023-02-18T12:28:59.216Z,4.03
2023-02-18T12:34:15.947Z,4.10
2023-02-18T12:39:28.833Z,2.92
2023-02-18T12:45:15.944Z,3.63
2023-02-18T12:50:54.950Z,2.28
2023-02-18T12:56:05.634Z,2.75
2023-02-18T13:01:31.326Z,2.25
2023-02-18T13:07:11.408Z,2.88
2023-02-18T13:12:42.064Z,2.28
2023-02-18T13:17:45.267Z,3.20
2023-02-18T13:22:48.354Z,2.83
2023-02-18T13:28:02.235Z,3.58
2023-02-18T13:33:26.159Z,5.28
2023-02-18T13:38:49.722Z,4.65
2023-02-18T13:43:51.273Z,2.50
2023-02-18T13:49:07.666Z,2.22
2023-02-18T13:54:12.087Z,1.60
2023-02-18T13:59:22.183Z,1.83
2023-02-18T14:04:42.375Z,2.95
2023-02-18T14:09:46.961Z,2.35
2023-02-18T14:14:48.671Z,2.97
2023-02-18T14:20:19.434Z,5.05
2023-02-18T14:25:20.981Z,4.13
2023-02-18T14:30:22.601Z,3.25
2023-02-18T14:35:42.357Z,2.92
2023-02-18T14:40:56.106Z,2.33
2023-02-18T14:46:10.068Z,1.90
2023-02-18T14:51:21.799Z,2.08
2023-02-18T14:56:23.718Z,1.88
2023-02-18T15:01:34.624Z,2.28
2023-02-18T15:06:38.026Z,4.53
2023-02-18T15:11:45.346Z,5.03
2023-02-18T15:16:48.866Z,3.35
2023-02-18T15:21:53.213Z,2.38
2023-02-18T15:26:58.891Z,2.63
2023-02-18T15:32:01.114Z,3.47
2023-02-18T15:37:05.597Z,3.28
2023-02-18T15:42:19.300Z,2.88
2023-02-18T15:47:22.418Z,3.83
2023-02-18T15:52:29.621Z,2.08
2023-02-18T15:57:33.235Z,3.80
2023-02-18T16:02:34.937Z,2.88
2023-02-18T16:07:51.813Z,2.58
2023-02-18T16:17:56.927Z,4.22
2023-02-18T16:23:12.397Z,2.22
2023-02-18T16:28:24.839Z,7.60
2023-02-18T16:33:26.460Z,3.95
2023-02-18T16:38:28.598Z,4.22
2023-02-18T16:43:30.306Z,3.30
2023-02-18T16:48:32.920Z,3.47
2023-02-18T16:53:34.587Z,3.38
2023-02-18T16:58:36.217Z,3.85
2023-02-18T17:03:37.884Z,6.60
2023-02-18T17:08:39.550Z,3.08
2023-02-18T17:13:41.188Z,2.80
2023-02-18T17:18:42.935Z,3.60
2023-02-18T17:23:45.390Z,4.82
2023-02-18T17:28:47.702Z,3.92
2023-02-18T17:33:50.136Z,3.70
2023-02-18T17:38:52.733Z,3.60
2023-02-18T17:43:54.449Z,3.20
2023-02-18T17:48:56.089Z,2.78
2023-02-18T17:53:57.864Z,3.50
2023-02-18T17:58:59.478Z,2.45
2023-02-18T18:04:02.042Z,3.05
2023-02-18T18:09:03.806Z,4.03
2023-02-18T18:14:05.544Z,3.85
2023-02-18T18:19:07.262Z,3.03
2023-02-18T18:24:12.219Z,2.83
2023-02-18T18:29:14.025Z,3.33
2023-02-18T18:34:16.397Z,3.63
2023-02-18T18:39:19.018Z,3.90
2023-02-18T18:44:20.747Z,2.78
2023-02-18T18:49:22.420Z,2.55
2023-02-18T18:54:24.268Z,4.30
2023-02-18T18:59:25.819Z,2.70
2023-02-18T19:04:27.512Z,2.45
2023-02-18T19:09:29.156Z,3.30
2023-02-18T19:14:30.878Z,4.20
2023-02-18T19:19:32.582Z,3.67
2023-02-18T19:24:34.305Z,3.42
2023-02-18T19:29:36.158Z,4.00
2023-02-18T19:34:37.869Z,4.32
2023-02-18T19:39:39.503Z,3.90
2023-02-18T19:44:41.214Z,3.33
2023-02-18T19:49:43.025Z,3.88
2023-02-18T19:54:44.718Z,2.88
2023-02-18T19:59:46.821Z,3.58
2023-02-18T20:04:49.019Z,4.47
2023-02-18T20:09:54.460Z,2.88
2023-02-18T20:14:56.124Z,3.40
2023-02-18T20:19:57.793Z,3.63
2023-02-18T20:25:00.262Z,4.43
2023-02-18T20:30:01.950Z,4.90
2023-02-18T20:35:05.197Z,5.70
2023-02-18T20:40:07.055Z,4.82
2023-02-18T20:45:09.536Z,3.97
2023-02-18T20:50:11.210Z,2.22
2023-02-18T20:55:12.817Z,2.60
2023-02-18T21:00:15.020Z,2.63
2023-02-18T21:05:16.700Z,2.00
2023-02-18T21:10:18.498Z,1.30
2023-02-18T21:15:20.096Z,1.52
2023-02-18T21:20:21.713Z,1.88
2023-02-18T21:25:23.360Z,1.30
2023-02-18T21:30:25.369Z,1.02
2023-02-18T21:35:27.079Z,1.65
2023-02-18T21:40:28.813Z,1.13
2023-02-18T21:45:30.767Z,1.70
2023-02-18T21:50:32.560Z,1.60
2023-02-18T21:55:34.215Z,1.77
2023-02-18T22:00:36.703Z,2.13
2023-02-18T22:05:41.148Z,2.03
2023-02-18T22:10:42.982Z,2.40
2023-02-18T22:15:44.613Z,1.75
2023-02-18T22:20:46.306Z,2.30
2023-02-18T22:25:48.025Z,1.50
2023-02-18T22:30:49.690Z,1.42
2023-02-18T22:35:51.414Z,2.00
2023-02-18T22:40:53.146Z,3.65
2023-02-18T22:45:54.811Z,2.92
2023-02-18T22:50:56.593Z,2.30
2023-02-18T22:56:09.610Z,2.40
2023-02-18T23:01:33.013Z,1.88
2023-02-18T23:06:35.711Z,1.77
2023-02-18T23:11:37.357Z,3.10
2023-02-18T23:16:39.671Z,2.30
2023-02-18T23:21:41.301Z,2.45
2023-02-18T23:26:43.109Z,2.85
2023-02-18T23:31:44.933Z,2.00
2023-02-18T23:36:46.664Z,2.50
2023-02-18T23:41:51.260Z,2.92
2023-02-18T23:46:53.033Z,3.70
2023-02-18T23:51:56.678Z,4.85
2023-02-18T23:56:58.356Z,4.13
